createdAt,value
2018-04-23T00:00:08.458Z,65.91
2018-04-23T00:01:08.453Z,66.96
2018-04-23T00:02:08.191Z,67.6
2018-04-23T00:03:08.448Z,67.79
2018-04-23T00:04:08.442Z,67.79
2018-04-23T00:05:08.441Z,67.89
2018-04-23T00:06:08.436Z,68.27
2018-04-23T00:07:08.441Z,69.71
2018-04-23T00:08:08.445Z,69.81
2018-04-23T00:09:08.432Z,69.52
2018-04-23T00:10:08.646Z,69.33
2018-04-23T00:11:08.418Z,70.96
2018-04-23T00:12:08.418Z,70.67
2018-04-23T00:13:08.154Z,70.83
2018-04-23T00:14:08.408Z,71.78
2018-04-23T00:15:08.402Z,72.07
2018-04-23T00:16:08.140Z,73.8
2018-04-23T00:17:08.136Z,75.23
2018-04-23T00:18:08.135Z,75.23
2018-04-23T00:19:08.133Z,75.23
2018-04-23T00:20:08.128Z,76
2018-04-23T00:21:08.124Z,76.29
2018-04-23T00:22:08.378Z,76.82
2018-04-23T00:23:08.151Z,78.49
2018-04-23T00:24:08.370Z,79.41
2018-04-23T00:25:08.114Z,79.41
2018-04-23T00:26:08.362Z,81.13
2018-04-23T00:27:08.362Z,81.33
2018-04-23T00:28:08.096Z,81.04
2018-04-23T00:29:08.094Z,81.13
2018-04-23T00:30:08.570Z,81.33
2018-04-23T00:31:08.347Z,81.9
2018-04-23T00:32:08.082Z,81.81
2018-04-23T00:33:08.078Z,82.29
2018-04-23T00:34:08.342Z,80.66
2018-04-23T00:35:08.328Z,81.43
2018-04-23T00:36:08.064Z,81.23
2018-04-23T00:37:08.060Z,81.43
2018-04-23T00:38:08.056Z,80.66
2018-04-23T00:39:08.314Z,80.66
2018-04-23T00:40:08.306Z,80.76
2018-04-23T00:41:08.299Z,81.52
2018-04-23T00:42:08.040Z,80.37
2018-04-23T00:43:08.035Z,79.99
2018-04-23T00:44:08.301Z,80.56
2018-04-23T00:45:08.286Z,81.04
2018-04-23T00:46:08.022Z,82.09
2018-04-23T00:47:08.280Z,81.81
2018-04-23T00:48:08.275Z,81.29
2018-04-23T00:49:08.268Z,82.34
2018-04-23T00:50:08.008Z,82.53
2018-04-23T00:51:08.279Z,81.38
2018-04-23T00:52:08.257Z,81.1
2018-04-23T00:53:08.255Z,82.24
2018-04-23T00:54:08.277Z,83.01
2018-04-23T00:55:07.986Z,85.41
2018-04-23T00:56:08.244Z,83.68
2018-04-23T00:57:08.250Z,83.97
2018-04-23T00:58:08.230Z,84.45
2018-04-23T00:59:08.225Z,83.11
2018-04-23T01:00:08.225Z,82.63
2018-04-23T01:01:08.225Z,81.86
2018-04-23T01:02:07.960Z,81.57
2018-04-23T01:03:07.959Z,82.24
2018-04-23T01:04:08.214Z,83.2
2018-04-23T01:05:08.203Z,84.64
2018-04-23T01:06:07.937Z,84.64
2018-04-23T01:07:08.190Z,84.92
2018-04-23T01:08:07.929Z,86.27
2018-04-23T01:09:08.198Z,87.23
2018-04-23T01:10:08.184Z,86.94
2018-04-23T01:11:07.917Z,85.55
2018-04-23T01:12:08.170Z,85.46
2018-04-23T01:13:08.187Z,84.88
2018-04-23T01:14:08.161Z,84.55
2018-04-23T01:15:08.155Z,84.35
2018-04-23T01:16:08.151Z,85.02
2018-04-23T01:17:08.148Z,84.16
2018-04-23T01:18:08.161Z,84.06
2018-04-23T01:19:08.138Z,84.26
2018-04-23T01:20:08.132Z,83.87
2018-04-23T01:21:08.128Z,83.39
2018-04-23T01:22:08.134Z,83.97
2018-04-23T01:23:07.863Z,84.83
2018-04-23T01:24:08.120Z,84.26
2018-04-23T01:25:07.855Z,84.06
2018-04-23T01:26:08.109Z,82.43
2018-04-23T01:27:07.851Z,82.43
2018-04-23T01:28:08.100Z,82.53
2018-04-23T01:29:08.097Z,82.53
2018-04-23T01:30:08.102Z,83.39
2018-04-23T01:31:08.085Z,84.74
2018-04-23T01:32:07.822Z,85.31
2018-04-23T01:33:08.074Z,83.97
2018-04-23T01:34:07.813Z,82.53
2018-04-23T01:35:07.809Z,82.24
2018-04-23T01:36:08.062Z,82.43
2018-04-23T01:37:08.062Z,82.34
2018-04-23T01:38:08.051Z,82.34
2018-04-23T01:39:08.046Z,82.73
2018-04-23T01:40:08.044Z,82.43
2018-04-23T01:41:08.040Z,82.82
2018-04-23T01:42:08.037Z,83.97
2018-04-23T01:43:08.028Z,84.16
2018-04-23T01:44:08.029Z,85.12
2018-04-23T01:45:08.032Z,85.79
2018-04-23T01:46:08.019Z,85.98
2018-04-23T01:47:08.012Z,84.92
2018-04-23T01:48:08.006Z,85.46
2018-04-23T01:49:07.745Z,85.65
2018-04-23T01:50:07.998Z,86.99
2018-04-23T01:51:07.736Z,86.99
2018-04-23T01:52:07.990Z,86.22
2018-04-23T01:53:07.987Z,85.94
2018-04-23T01:54:07.980Z,85.84
2018-04-23T01:55:07.978Z,85.75
2018-04-23T01:56:07.969Z,86.8
2018-04-23T01:57:07.965Z,87.08
2018-04-23T01:58:07.960Z,86.61
2018-04-23T01:59:08.004Z,86.32
2018-04-23T02:00:07.949Z,86.99
2018-04-23T02:01:07.943Z,86.61
2018-04-23T02:02:07.686Z,86.22
2018-04-23T02:03:07.938Z,86.61
2018-04-23T02:04:07.933Z,86.13
2018-04-23T02:05:07.927Z,86.22
2018-04-23T02:06:07.922Z,86.32
2018-04-23T02:07:07.921Z,87.95
2018-04-23T02:08:07.911Z,87.56
2018-04-23T02:09:07.906Z,87.76
2018-04-23T02:10:07.903Z,86.61
2018-04-23T02:11:07.896Z,86.51
2018-04-23T02:12:07.912Z,86.61
2018-04-23T02:13:07.628Z,86.61
2018-04-23T02:14:07.882Z,87.08
2018-04-23T02:15:07.624Z,86.22
2018-04-23T02:16:07.947Z,86.61
2018-04-23T02:17:07.867Z,86.51
2018-04-23T02:18:07.867Z,86.8
2018-04-23T02:19:07.857Z,87.47
2018-04-23T02:20:07.859Z,86.8
2018-04-23T02:21:07.590Z,86.32
2018-04-23T02:22:07.841Z,85.46
2018-04-23T02:23:07.836Z,85.08
2018-04-23T02:24:07.834Z,87.18
2018-04-23T02:25:07.827Z,85.75
2018-04-23T02:26:07.824Z,86.32
2018-04-23T02:27:07.820Z,84.88
2018-04-23T02:28:07.835Z,84.69
2018-04-23T02:29:07.807Z,84.83
2018-04-23T02:30:07.810Z,84.55
2018-04-23T02:31:07.539Z,84.16
2018-04-23T02:32:07.793Z,84.16
2018-04-23T02:33:07.530Z,84.26
2018-04-23T02:34:07.788Z,83.78
2018-04-23T02:35:07.778Z,84.06
2018-04-23T02:36:07.519Z,84.64
2018-04-23T02:37:07.767Z,84.35
2018-04-23T02:38:07.772Z,83.68
2018-04-23T02:39:07.783Z,84.06
2018-04-23T02:40:07.757Z,84.35
2018-04-23T02:41:07.494Z,84.74
2018-04-23T02:42:07.746Z,85.79
2018-04-23T02:43:07.746Z,86.32
2018-04-23T02:44:07.479Z,85.75
2018-04-23T02:45:07.473Z,85.75
2018-04-23T02:46:07.470Z,86.51
2018-04-23T02:47:07.718Z,86.13
2018-04-23T02:48:07.461Z,85.75
2018-04-23T02:49:07.469Z,85.75
2018-04-23T02:50:07.729Z,87.27
2018-04-23T02:51:07.710Z,86.41
2018-04-23T02:52:07.439Z,86.04
2018-04-23T02:53:07.692Z,86.13
2018-04-23T02:54:07.429Z,86.61
2018-04-23T02:55:07.439Z,86.22
2018-04-23T02:56:07.679Z,86.61
2018-04-23T02:57:07.701Z,86.22
2018-04-23T02:58:07.682Z,86.41
2018-04-23T02:59:07.403Z,86.22
2018-04-23T03:00:07.655Z,86.61
2018-04-23T03:01:07.394Z,86.99
2018-04-23T03:02:07.390Z,86.51
2018-04-23T03:03:07.643Z,86.51
2018-04-23T03:04:07.637Z,86.61
2018-04-23T03:05:07.651Z,86.51
2018-04-23T03:06:07.643Z,86.9
2018-04-23T03:07:07.364Z,86.99
2018-04-23T03:08:07.357Z,88.52
2018-04-23T03:09:07.352Z,87.76
2018-04-23T03:10:07.617Z,87.56
2018-04-23T03:11:07.603Z,86.99
2018-04-23T03:12:07.600Z,87.47
2018-04-23T03:13:07.601Z,87.18
2018-04-23T03:14:07.592Z,86.51
2018-04-23T03:15:07.602Z,86.99
2018-04-23T03:16:07.579Z,86.99
2018-04-23T03:17:07.586Z,87.85
2018-04-23T03:18:07.567Z,88.52
2018-04-23T03:19:07.303Z,88.52
2018-04-23T03:20:07.560Z,88.71
2018-04-23T03:21:07.294Z,88.33
2018-04-23T03:22:07.550Z,88.43
2018-04-23T03:23:07.540Z,88.81
2018-04-23T03:24:07.535Z,89.86
2018-04-23T03:25:07.534Z,89.91
2018-04-23T03:26:07.531Z,90.1
2018-04-23T03:27:07.265Z,90.39
2018-04-23T03:28:07.258Z,89.43
2018-04-23T03:29:07.511Z,89.24
2018-04-23T03:30:07.509Z,88.76
2018-04-23T03:31:07.519Z,89.34
2018-04-23T03:32:07.716Z,88.95
2018-04-23T03:33:07.233Z,89
2018-04-23T03:34:07.227Z,90.58
2018-04-23T03:35:07.483Z,89.53
2018-04-23T03:36:07.216Z,89.53
2018-04-23T03:37:07.542Z,89.53
2018-04-23T03:38:07.207Z,91.06
2018-04-23T03:39:07.462Z,91.06
2018-04-23T03:40:07.454Z,90.58
2018-04-23T03:41:07.466Z,91.44
2018-04-23T03:42:07.442Z,91.16
2018-04-23T03:43:07.439Z,90.58
2018-04-23T03:44:07.433Z,91.25
2018-04-23T03:45:07.170Z,91.06
2018-04-23T03:46:07.425Z,90.87
2018-04-23T03:47:07.417Z,91.83
2018-04-23T03:48:07.154Z,91.44
2018-04-23T03:49:07.153Z,92.02
2018-04-23T03:50:07.403Z,91.35
2018-04-23T03:51:07.398Z,91.73
2018-04-23T03:52:07.134Z,91.92
2018-04-23T03:53:07.391Z,92.02
2018-04-23T03:54:07.123Z,92.3
2018-04-23T03:55:07.382Z,92.59
2018-04-23T03:56:07.370Z,93.07
2018-04-23T03:57:07.133Z,92.97
2018-04-23T03:58:07.103Z,93.26
2018-04-23T03:59:07.361Z,93.64
2018-04-23T04:00:07.349Z,93.93
2018-04-23T04:01:07.345Z,93.55
2018-04-23T04:02:07.085Z,93.84
2018-04-23T04:03:07.338Z,94.02
2018-04-23T04:04:07.546Z,93.84
2018-04-23T04:05:07.322Z,94.02
2018-04-23T04:06:07.060Z,94.02
2018-04-23T04:07:07.310Z,93.74
2018-04-23T04:08:07.065Z,94.98
2018-04-23T04:09:07.306Z,94.84
2018-04-23T04:10:07.038Z,94.02
2018-04-23T04:11:07.296Z,94.21
2018-04-23T04:12:07.507Z,94.02
2018-04-23T04:13:07.022Z,94.41
2018-04-23T04:14:07.016Z,94.6
2018-04-23T04:15:07.269Z,94.31
2018-04-23T04:16:07.262Z,94.21
2018-04-23T04:17:07.262Z,93.64
2018-04-23T04:18:06.995Z,94.41
2018-04-23T04:19:07.260Z,94.02
2018-04-23T04:20:06.984Z,93.93
2018-04-23T04:21:07.239Z,93.35
2018-04-23T04:22:07.452Z,93.35
2018-04-23T04:23:06.968Z,93.35
2018-04-23T04:24:06.962Z,93.45
2018-04-23T04:25:07.216Z,93.74
2018-04-23T04:26:06.957Z,94.41
2018-04-23T04:27:07.205Z,93.98
2018-04-23T04:28:07.201Z,93.84
2018-04-23T04:29:07.197Z,93.84
2018-04-23T04:30:07.207Z,93.93
2018-04-23T04:31:07.201Z,93.93
2018-04-23T04:32:07.182Z,94.31
2018-04-23T04:33:07.172Z,93.93
2018-04-23T04:34:07.170Z,93.64
2018-04-23T04:35:06.906Z,94.89
2018-04-23T04:36:07.156Z,94.41
2018-04-23T04:37:07.152Z,94.26
2018-04-23T04:38:07.150Z,94.41
2018-04-23T04:39:07.139Z,93.93
2018-04-23T04:40:07.138Z,92.92
2018-04-23T04:41:06.873Z,93.02
2018-04-23T04:42:07.141Z,93.02
2018-04-23T04:43:07.121Z,93.5
2018-04-23T04:44:07.119Z,93.02
2018-04-23T04:45:07.112Z,93.02
2018-04-23T04:46:07.105Z,92.92
2018-04-23T04:47:07.097Z,92.92
2018-04-23T04:48:07.093Z,93.12
2018-04-23T04:49:06.832Z,93.12
2018-04-23T04:50:07.083Z,93.3
2018-04-23T04:51:06.821Z,93.12
2018-04-23T04:52:06.815Z,93.02
2018-04-23T04:53:07.067Z,92.83
2018-04-23T04:54:06.808Z,92.83
2018-04-23T04:55:07.059Z,92.92
2018-04-23T04:56:07.069Z,92.73
2018-04-23T04:57:07.070Z,92.4
2018-04-23T04:58:07.043Z,92.3
2018-04-23T04:59:07.139Z,92.11
2018-04-23T05:00:07.036Z,92.11
2018-04-23T05:01:07.034Z,91.63
2018-04-23T05:02:07.044Z,91.05
2018-04-23T05:03:07.017Z,91.63
2018-04-23T05:04:07.014Z,92.49
2018-04-23T05:05:07.012Z,92.11
2018-04-23T05:06:07.005Z,92.68
2018-04-23T05:07:06.739Z,91.92
2018-04-23T05:08:06.994Z,91.72
2018-04-23T05:09:06.734Z,92.01
2018-04-23T05:10:06.989Z,91.53
2018-04-23T05:11:06.980Z,91.82
2018-04-23T05:12:06.977Z,90.67
2018-04-23T05:13:06.711Z,91.15
2018-04-23T05:14:07.166Z,91.15
2018-04-23T05:15:06.774Z,91.05
2018-04-23T05:16:06.697Z,91.44
2018-04-23T05:17:07.101Z,91.92
2018-04-23T05:18:07.063Z,90.96
2018-04-23T05:19:06.686Z,91.53
2018-04-23T05:20:06.937Z,90.96
2018-04-23T05:21:06.957Z,90.86
2018-04-23T05:22:06.994Z,90.77
2018-04-23T05:23:06.993Z,90.39
2018-04-23T05:24:06.919Z,90.43
2018-04-23T05:25:07.001Z,90.33
2018-04-23T05:26:06.656Z,90.33
2018-04-23T05:27:06.655Z,89.66
2018-04-23T05:28:06.645Z,88.8
2018-04-23T05:29:06.959Z,89.76
2018-04-23T05:30:06.993Z,89.09
2018-04-23T05:31:06.631Z,88.8
2018-04-23T05:32:06.626Z,88.8
2018-04-23T05:33:06.887Z,87.74
2018-04-23T05:34:06.982Z,88.61
2018-04-23T05:35:06.877Z,88.8
2018-04-23T05:36:06.610Z,89.09
2018-04-23T05:37:06.898Z,88.61
2018-04-23T05:38:06.601Z,89.09
2018-04-23T05:39:06.903Z,88.61
2018-04-23T05:40:06.849Z,88.61
2018-04-23T05:41:06.889Z,89.18
2018-04-23T05:42:06.840Z,88.99
2018-04-23T05:43:06.585Z,89.18
2018-04-23T05:44:06.890Z,89.09
2018-04-23T05:45:06.829Z,89.28
2018-04-23T05:46:06.567Z,89.37
2018-04-23T05:47:06.841Z,89.28
2018-04-23T05:48:06.814Z,88.9
2018-04-23T05:49:06.814Z,87.94
2018-04-23T05:50:06.812Z,88.65
2018-04-23T05:51:06.806Z,88.17
2018-04-23T05:52:06.818Z,88.27
2018-04-23T05:53:06.541Z,89.71
2018-04-23T05:54:06.792Z,87.12
2018-04-23T05:55:06.861Z,86.64
2018-04-23T05:56:06.783Z,86.68
2018-04-23T05:57:06.781Z,85.82
2018-04-23T05:58:06.518Z,85.92
2018-04-23T05:59:06.772Z,86.01
2018-04-23T06:00:06.802Z,85.53
2018-04-23T06:01:06.764Z,85.05
2018-04-23T06:02:06.778Z,83.94
2018-04-23T06:03:06.533Z,83.75
2018-04-23T06:04:06.757Z,83.37
2018-04-23T06:05:06.755Z,83.56
2018-04-23T06:06:06.751Z,84.04
2018-04-23T06:07:06.759Z,83.56
2018-04-23T06:08:06.482Z,83.27
2018-04-23T06:09:06.477Z,83.08
2018-04-23T06:10:06.734Z,84.14
2018-04-23T06:11:06.731Z,84.42
2018-04-23T06:12:06.731Z,83.37
2018-04-23T06:13:06.721Z,82.93
2018-04-23T06:14:06.722Z,83.75
2018-04-23T06:15:06.722Z,84.56
2018-04-23T06:16:06.710Z,85.62
2018-04-23T06:17:06.933Z,85.71
2018-04-23T06:18:06.706Z,84.37
2018-04-23T06:19:06.704Z,83.56
2018-04-23T06:20:06.700Z,84.08
2018-04-23T06:21:06.438Z,85.42
2018-04-23T06:22:06.694Z,86.29
2018-04-23T06:23:06.690Z,84.47
2018-04-23T06:24:06.689Z,82.64
2018-04-23T06:25:06.690Z,81.97
2018-04-23T06:26:06.697Z,81.87
2018-04-23T06:27:06.420Z,81.1
2018-04-23T06:28:06.694Z,81.24
2018-04-23T06:29:06.672Z,80.86
2018-04-23T06:30:06.669Z,81.24
2018-04-23T06:31:06.746Z,81.34
2018-04-23T06:32:06.667Z,81.82
2018-04-23T06:33:06.403Z,80.96
2018-04-23T06:34:06.402Z,80.57
2018-04-23T06:35:06.654Z,80.09
2018-04-23T06:36:06.393Z,79.32
2018-04-23T06:37:06.654Z,80.47
2018-04-23T06:38:06.648Z,79.61
2018-04-23T06:39:06.650Z,80.09
2018-04-23T06:40:06.649Z,80.57
2018-04-23T06:41:06.663Z,80.66
2018-04-23T06:42:06.383Z,80.57
2018-04-23T06:43:06.379Z,78.94
2018-04-23T06:44:06.635Z,80.96
2018-04-23T06:45:06.645Z,81.15
2018-04-23T06:46:06.380Z,80.09
2018-04-23T06:47:06.629Z,80.19
2018-04-23T06:48:06.625Z,79.8
2018-04-23T06:49:06.370Z,80.04
2018-04-23T06:50:06.619Z,79.75
2018-04-23T06:51:06.620Z,77.25
2018-04-23T06:52:06.578Z,76.19
2018-04-23T06:53:06.614Z,75.81
2018-04-23T06:54:06.610Z,74.11
2018-04-23T06:55:06.608Z,74.02
2018-04-23T06:56:06.611Z,72.48
2018-04-23T06:57:06.824Z,73.67
2018-04-23T06:58:06.624Z,73.09
2018-04-23T06:59:06.370Z,70.98
2018-04-23T07:00:06.343Z,69.95
2018-04-23T07:01:06.600Z,70.24
2018-04-23T07:02:06.601Z,69.47
2018-04-23T07:03:06.338Z,67.97
2018-04-23T07:04:06.590Z,68.06
2018-04-23T07:05:06.363Z,68.54
2018-04-23T07:06:06.617Z,68.74
2018-04-23T07:07:06.333Z,68.35
2018-04-23T07:08:06.666Z,68.06
2018-04-23T07:09:06.592Z,70.02
2018-04-23T07:10:06.629Z,70.31
2018-04-23T07:11:06.328Z,68.19
2018-04-23T07:12:06.586Z,69.38
2018-04-23T07:13:06.592Z,64.5
2018-04-23T07:14:06.608Z,61.25
2018-04-23T07:15:06.608Z,61.06
2018-04-23T07:16:06.323Z,61.54
2018-04-23T07:17:06.580Z,61.16
2018-04-23T07:18:06.718Z,63.85
2018-04-23T07:19:06.324Z,62.22
2018-04-23T07:20:06.342Z,62.6
2018-04-23T07:21:06.580Z,63.06
2018-04-23T07:22:06.589Z,62.06
2018-04-23T07:23:06.580Z,62.15
2018-04-23T07:24:06.699Z,63.5
2018-04-23T07:25:06.580Z,64.73
2018-04-23T07:26:06.321Z,67.23
2018-04-23T07:27:06.581Z,69.15
2018-04-23T07:28:06.336Z,68.96
2018-04-23T07:29:06.579Z,64.15
2018-04-23T07:30:06.581Z,63.95
2018-04-23T07:31:06.320Z,64.28
2018-04-23T07:32:06.319Z,67.16
2018-04-23T07:33:06.575Z,65.81
2018-04-23T07:34:06.579Z,63.92
2018-04-23T07:35:06.316Z,63.34
2018-04-23T07:36:06.318Z,65.11
2018-04-23T07:37:06.580Z,62.99
2018-04-23T07:38:06.575Z,62.25
2018-04-23T07:39:06.585Z,62.05
2018-04-23T07:40:06.318Z,60.89
2018-04-23T07:41:06.317Z,61.38
2018-04-23T07:42:06.577Z,61.09
2018-04-23T07:43:06.573Z,61.57
2018-04-23T07:44:06.586Z,63.5
2018-04-23T07:45:06.587Z,60.86
2018-04-23T07:46:06.315Z,59.61
2018-04-23T07:47:06.580Z,59.9
2018-04-23T07:48:06.575Z,60.55
2018-04-23T07:49:06.316Z,63.92
2018-04-23T07:50:06.580Z,64.4
2018-04-23T07:51:06.572Z,64.59
2018-04-23T07:52:06.578Z,63.85
2018-04-23T07:53:06.574Z,64.11
2018-04-23T07:54:06.599Z,63.57
2018-04-23T07:55:06.574Z,67
2018-04-23T07:56:06.315Z,66.62
2018-04-23T07:57:06.573Z,64.79
2018-04-23T07:58:06.572Z,64.02
2018-04-23T07:59:06.570Z,63.92
2018-04-23T08:00:06.313Z,64.02
2018-04-23T08:01:06.573Z,65.66
2018-04-23T08:02:06.575Z,64.69
2018-04-23T08:03:06.573Z,65.85
2018-04-23T08:04:06.315Z,61.03
2018-04-23T08:05:06.315Z,61.13
2018-04-23T08:06:06.573Z,63.24
2018-04-23T08:07:06.573Z,63.7
2018-04-23T08:08:06.575Z,65.14
2018-04-23T08:09:06.316Z,63.95
2018-04-23T08:10:06.317Z,65.3
2018-04-23T08:11:06.595Z,66.27
2018-04-23T08:12:06.574Z,65.98
2018-04-23T08:13:06.618Z,65.78
2018-04-23T08:14:06.580Z,67.42
2018-04-23T08:15:06.322Z,66.17
2018-04-23T08:16:06.573Z,69.19
2018-04-23T08:17:06.317Z,69.38
2018-04-23T08:18:06.584Z,68.74
2018-04-23T08:19:06.578Z,68.26
2018-04-23T08:20:06.577Z,66.46
2018-04-23T08:21:06.316Z,66.36
2018-04-23T08:22:06.575Z,63.89
2018-04-23T08:23:06.575Z,63.21
2018-04-23T08:24:06.323Z,62.73
2018-04-23T08:25:06.319Z,63.21
2018-04-23T08:26:06.578Z,63.02
2018-04-23T08:27:06.577Z,63.21
2018-04-23T08:28:06.579Z,61.77
2018-04-23T08:29:06.322Z,64.08
2018-04-23T08:30:06.578Z,64.28
2018-04-23T08:31:06.582Z,64.08
2018-04-23T08:32:06.324Z,64.66
2018-04-23T08:33:06.322Z,64.47
2018-04-23T08:34:06.580Z,62.44
2018-04-23T08:35:06.588Z,64.95
2018-04-23T08:36:06.604Z,65.14
2018-04-23T08:37:06.611Z,60.16
2018-04-23T08:38:06.328Z,61.41
2018-04-23T08:39:06.329Z,61.12
2018-04-23T08:40:06.590Z,59.86
2018-04-23T08:41:06.597Z,61.34
2018-04-23T08:42:06.591Z,63.47
2018-04-23T08:43:06.335Z,61.92
2018-04-23T08:44:06.336Z,57.67
2018-04-23T08:45:06.338Z,58.73
2018-04-23T08:46:06.602Z,59.22
2018-04-23T08:47:06.604Z,63.08
2018-04-23T08:48:06.350Z,61.22
2018-04-23T08:49:06.603Z,61.51
2018-04-23T08:50:06.604Z,59.38
2018-04-23T08:51:06.350Z,58.22
2018-04-23T08:52:06.610Z,58.9
2018-04-23T08:53:06.632Z,60.35
2018-04-23T08:54:06.612Z,59.55
2018-04-23T08:55:06.635Z,59.64
2018-04-23T08:56:06.615Z,59.83
2018-04-23T08:57:06.614Z,60.58
2018-04-23T08:58:06.360Z,63.37
2018-04-23T08:59:06.615Z,62.41
2018-04-23T09:00:06.361Z,61.25
2018-04-23T09:01:06.816Z,61.35
2018-04-23T09:02:06.623Z,60.28
2018-04-23T09:03:06.627Z,64.72
2018-04-23T09:04:06.631Z,61.06
2018-04-23T09:05:06.629Z,63.47
2018-04-23T09:06:06.368Z,65.11
2018-04-23T09:07:06.572Z,64.34
2018-04-23T09:08:06.630Z,64.18
2018-04-23T09:09:06.634Z,60.99
2018-04-23T09:10:06.631Z,63.5
2018-04-23T09:11:06.374Z,63.82
2018-04-23T09:12:06.639Z,62.18
2018-04-23T09:13:06.635Z,62.4
2018-04-23T09:14:06.635Z,61.05
2018-04-23T09:15:06.640Z,55.87
2018-04-23T09:16:06.639Z,54.77
2018-04-23T09:17:06.641Z,56.41
2018-04-23T09:18:06.647Z,57.45
2018-04-23T09:19:06.644Z,59.67
2018-04-23T09:20:06.645Z,60.54
2018-04-23T09:21:06.653Z,62.18
2018-04-23T09:22:06.389Z,58.68
2018-04-23T09:23:06.392Z,56.36
2018-04-23T09:24:06.665Z,57.9
2018-04-23T09:25:06.653Z,58.68
2018-04-23T09:26:06.659Z,58.55
2018-04-23T09:27:06.661Z,56.43
2018-04-23T09:28:06.615Z,57.68
2018-04-23T09:29:06.665Z,56.91
2018-04-23T09:30:06.660Z,57.42
2018-04-23T09:31:06.665Z,58.77
2018-04-23T09:32:06.681Z,56.94
2018-04-23T09:33:06.660Z,60.13
2018-04-23T09:34:06.669Z,56.68
2018-04-23T09:35:06.406Z,55.13
2018-04-23T09:36:06.666Z,55.42
2018-04-23T09:37:06.669Z,55.71
2018-04-23T09:38:06.409Z,53.2
2018-04-23T09:39:06.671Z,55.33
2018-04-23T09:40:06.414Z,57.93
2018-04-23T09:41:06.675Z,57.54
2018-04-23T09:42:06.676Z,59.12
2018-04-23T09:43:06.676Z,50.71
2018-04-23T09:44:06.702Z,50.71
2018-04-23T09:45:06.679Z,50.91
2018-04-23T09:46:06.684Z,51.68
2018-04-23T09:47:06.682Z,50.65
2018-04-23T09:48:06.684Z,49.19
2018-04-23T09:49:06.698Z,51.03
2018-04-23T09:50:06.802Z,50.65
2018-04-23T09:51:06.431Z,49.19
2018-04-23T09:52:06.693Z,48.42
2018-04-23T09:53:06.696Z,47.77
2018-04-23T09:54:06.696Z,48.03
2018-04-23T09:55:06.698Z,47.84
2018-04-23T09:56:06.701Z,49.17
2018-04-23T09:57:06.700Z,50.52
2018-04-23T09:58:06.701Z,48.39
2018-04-23T09:59:06.710Z,49.82
2018-04-23T10:00:06.709Z,50.31
2018-04-23T10:01:06.449Z,50.31
2018-04-23T10:02:06.739Z,49.12
2018-04-23T10:03:06.455Z,50.38
2018-04-23T10:04:06.715Z,51.41
2018-04-23T10:05:06.715Z,52.73
2018-04-23T10:06:06.510Z,54.18
2018-04-23T10:07:06.722Z,56.09
2018-04-23T10:08:06.462Z,55.09
2018-04-23T10:09:06.720Z,55.77
2018-04-23T10:10:06.464Z,56.7
2018-04-23T10:11:06.466Z,58.63
2018-04-23T10:12:06.754Z,59.3
2018-04-23T10:13:06.723Z,59.47
2018-04-23T10:14:06.723Z,59.56
2018-04-23T10:15:06.724Z,59.94
2018-04-23T10:16:06.738Z,60.62
2018-04-23T10:17:06.726Z,62.99
2018-04-23T10:18:06.726Z,65.97
2018-04-23T10:19:06.465Z,71.81
2018-04-23T10:20:06.723Z,80.61
2018-04-23T10:21:07.068Z,85.95
2018-04-23T10:22:06.464Z,90.7
2018-04-23T10:23:06.723Z,91.91
2018-04-23T10:24:06.718Z,95.12
2018-04-23T10:25:06.461Z,96.89
2018-04-23T10:26:06.458Z,97.14
2018-04-23T10:27:06.712Z,94.84
2018-04-23T10:28:06.713Z,92.11
2018-04-23T10:29:06.451Z,89.29
2018-04-23T10:30:06.710Z,85.36
2018-04-23T10:31:07.133Z,85.75
2018-04-23T10:32:06.700Z,83.31
2018-04-23T10:33:06.440Z,82.35
2018-04-23T10:34:06.692Z,79.58
2018-04-23T10:35:06.431Z,79.39
2018-04-23T10:36:06.426Z,77.57
2018-04-23T10:37:06.682Z,76.9
2018-04-23T10:38:06.677Z,74.9
2018-04-23T10:39:06.416Z,73.75
2018-04-23T10:40:06.669Z,71.45
2018-04-23T10:41:06.669Z,69.48
2018-04-23T10:42:06.674Z,67.76
2018-04-23T10:43:06.656Z,67.94
2018-04-23T10:44:06.393Z,67.6
2018-04-23T10:45:06.649Z,68.94
2018-04-23T10:46:06.640Z,70.56
2018-04-23T10:47:06.638Z,72.19
2018-04-23T10:48:06.635Z,75.54
2018-04-23T10:49:06.633Z,75.35
2018-04-23T10:50:06.368Z,74.2
2018-04-23T10:51:06.426Z,74.52
2018-04-23T10:52:06.617Z,74.52
2018-04-23T10:53:06.611Z,74.91
2018-04-23T10:54:06.606Z,75.2
2018-04-23T10:55:06.603Z,74.33
2018-04-23T10:56:06.338Z,70.89
2018-04-23T10:57:06.608Z,69.45
2018-04-23T10:58:06.594Z,69.17
2018-04-23T10:59:06.585Z,69.17
2018-04-23T11:00:06.584Z,68.68
2018-04-23T11:01:06.329Z,67.54
2018-04-23T11:02:06.315Z,69.68
2018-04-23T11:03:06.570Z,69.77
2018-04-23T11:04:06.305Z,68.62
2018-04-23T11:05:06.566Z,67.28
2018-04-23T11:06:06.557Z,69.2
2018-04-23T11:07:06.551Z,67.47
2018-04-23T11:08:06.290Z,67.66
2018-04-23T11:09:06.288Z,67.47
2018-04-23T11:10:06.282Z,66.51
2018-04-23T11:11:06.534Z,66.22
2018-04-23T11:12:06.535Z,65.2
2018-04-23T11:13:06.271Z,65.59
2018-04-23T11:14:06.523Z,69.23
2018-04-23T11:15:06.523Z,72.2
2018-04-23T11:16:06.514Z,73.45
2018-04-23T11:17:06.258Z,79.78
2018-04-23T11:18:06.253Z,79.49
2018-04-23T11:19:06.505Z,82.94
2018-04-23T11:20:06.247Z,81.41
2018-04-23T11:21:06.361Z,82.14
2018-04-23T11:22:06.242Z,82.42
2018-04-23T11:23:06.493Z,86.25
2018-04-23T11:24:06.239Z,86.83
2018-04-23T11:25:06.487Z,84.63
2018-04-23T11:26:06.491Z,86.25
2018-04-23T11:27:06.219Z,87.88
2018-04-23T11:28:06.477Z,87.31
2018-04-23T11:29:06.471Z,85.88
2018-04-23T11:30:06.468Z,83.29
2018-04-23T11:31:06.212Z,85.78
2018-04-23T11:32:06.205Z,89.32
2018-04-23T11:33:06.461Z,88.89
2018-04-23T11:34:06.453Z,88.51
2018-04-23T11:35:06.452Z,86.88
2018-04-23T11:36:06.463Z,93.21
2018-04-23T11:37:06.186Z,90.14
2018-04-23T11:38:06.443Z,88.84
2018-04-23T11:39:06.441Z,89.12
2018-04-23T11:40:06.435Z,91.24
2018-04-23T11:41:06.439Z,91.52
2018-04-23T11:42:06.433Z,90.95
2018-04-23T11:43:06.439Z,91.72
2018-04-23T11:44:06.422Z,95.46
2018-04-23T11:45:06.481Z,93.35
2018-04-23T11:46:06.157Z,94.31
2018-04-23T11:47:06.415Z,93.59
2018-04-23T11:48:06.413Z,96.27
2018-04-23T11:49:06.149Z,94.93
2018-04-23T11:50:06.409Z,96.18
2018-04-23T11:51:06.405Z,96.75
2018-04-23T11:52:06.143Z,95.7
2018-04-23T11:53:06.199Z,95.6
2018-04-23T11:54:06.395Z,95.5
2018-04-23T11:55:06.397Z,95.5
2018-04-23T11:56:06.393Z,95.5
2018-04-23T11:57:06.387Z,96.13
2018-04-23T11:58:06.387Z,95.45
2018-04-23T11:59:06.126Z,94.98
2018-04-23T12:00:06.406Z,96.32
2018-04-23T12:01:06.378Z,95.36
2018-04-23T12:02:06.377Z,95.84
2018-04-23T12:03:06.376Z,95.45
2018-04-23T12:04:06.114Z,95.94
2018-04-23T12:05:06.373Z,94.88
2018-04-23T12:06:06.110Z,95.94
2018-04-23T12:07:06.367Z,95.26
2018-04-23T12:08:06.363Z,95.12
2018-04-23T12:09:06.582Z,94.69
2018-04-23T12:10:06.103Z,93.82
2018-04-23T12:11:06.380Z,95.45
2018-04-23T12:12:06.357Z,95.17
2018-04-23T12:13:06.356Z,96.13
2018-04-23T12:14:06.099Z,95.55
2018-04-23T12:15:06.354Z,94.78
2018-04-23T12:16:06.423Z,95.17
2018-04-23T12:17:06.349Z,95.55
2018-04-23T12:18:06.348Z,95.94
2018-04-23T12:19:06.353Z,95.36
2018-04-23T12:20:06.087Z,95.26
2018-04-23T12:21:06.349Z,95.21
2018-04-23T12:22:06.359Z,95.03
2018-04-23T12:23:06.336Z,94.83
2018-04-23T12:24:06.076Z,94.83
2018-04-23T12:25:06.335Z,94.83
2018-04-23T12:26:06.332Z,94.35
2018-04-23T12:27:06.333Z,94.64
2018-04-23T12:28:06.330Z,94.54
2018-04-23T12:29:06.341Z,94.93
2018-04-23T12:30:06.069Z,94.64
2018-04-23T12:31:06.066Z,94.16
2018-04-23T12:32:06.066Z,93.39
2018-04-23T12:33:06.326Z,93.77
2018-04-23T12:34:06.318Z,94.45
2018-04-23T12:35:06.059Z,94.54
2018-04-23T12:36:06.317Z,94.93
2018-04-23T12:37:06.315Z,94.98
2018-04-23T12:38:06.057Z,93.91
2018-04-23T12:39:06.055Z,93.91
2018-04-23T12:40:06.053Z,94.68
2018-04-23T12:41:06.311Z,93.15
2018-04-23T12:42:06.050Z,93.91
2018-04-23T12:43:06.311Z,93.19
2018-04-23T12:44:06.048Z,92.13
2018-04-23T12:45:06.309Z,91.75
2018-04-23T12:46:06.071Z,92.52
2018-04-23T12:47:06.305Z,91.75
2018-04-23T12:48:06.045Z,91.46
2018-04-23T12:49:06.301Z,91.17
2018-04-23T12:50:06.042Z,89.25
2018-04-23T12:51:06.069Z,90.06
2018-04-23T12:52:06.299Z,89.44
2018-04-23T12:53:06.045Z,90.06
2018-04-23T12:54:06.297Z,85.35